<?xml version="1.0" encoding="UTF-8" standalone="no" ?>
<gpx xmlns="http://www.topografix.com/GPX/1/1" xmlns:xsi="http://www.w3.org/2001/XMLSchema-instance" xsi:schemaLocation="http://www.topografix.com/GPX/1/1 http://www.topografix.com/GPX/1/1/gpx.xsd" version="1.1" creator="VisuGPX - https://www.visugpx.com">
  <metadata>
    <name>pic de bacanere</name>
    <desc><![CDATA[Randi au départ de salles et pratvielle, retour par le fabuleux single d artigues.]]></desc>
  </metadata>
  <wpt lat="42.8473" lon="0.64246">
    <ele>1387.27</ele>
    <name><![CDATA[WPT_0000218]]></name>
    <desc><![CDATA[]]></desc>
    <type><![CDATA[Photo]]></type>
  </wpt>
  <wpt lat="42.8473" lon="0.64246">
    <ele>1387.27</ele>
    <name><![CDATA[WPT_0000219]]></name>
    <desc><![CDATA[]]></desc>
    <type><![CDATA[Photo]]></type>
  </wpt>
  <wpt lat="42.85703" lon="0.65218">
    <ele>1549.27</ele>
    <name><![CDATA[WPT_0000220]]></name>
    <desc><![CDATA[]]></desc>
    <type><![CDATA[Photo]]></type>
  </wpt>
  <wpt lat="42.85138" lon="0.66242">
    <ele>1832.27</ele>
    <name><![CDATA[WPT_0000221]]></name>
    <desc><![CDATA[]]></desc>
    <type><![CDATA[Photo]]></type>
  </wpt>
  <wpt lat="42.85153" lon="0.66566">
    <ele>1877.26</ele>
    <name><![CDATA[WPT_0000222]]></name>
    <desc><![CDATA[]]></desc>
    <type><![CDATA[Photo]]></type>
  </wpt>
  <wpt lat="42.84611" lon="0.67519">
    <ele>2193.26</ele>
    <name><![CDATA[WPT_0000223]]></name>
    <desc><![CDATA[]]></desc>
    <type><![CDATA[Photo]]></type>
  </wpt>
  <wpt lat="42.84607" lon="0.67521">
    <ele>2198.26</ele>
    <name><![CDATA[WPT_0000224]]></name>
    <desc><![CDATA[]]></desc>
    <type><![CDATA[Photo]]></type>
  </wpt>
  <wpt lat="42.82837" lon="0.61566">
    <ele>1116.27</ele>
    <name><![CDATA[WPT_0000225]]></name>
    <desc><![CDATA[]]></desc>
    <type><![CDATA[Photo]]></type>
  </wpt>
  <trk>
    <name><![CDATA[2014-05-09 09:02]]></name>
    <desc><![CDATA[<h1>OruxMaps</h1><br /><hr align="center" width="480" style="height: 2px; width: 517px"/><h2>Nom: 2014-05-09 09:02</h2><br /><p>Temps de départ: 05/09/2014 09:02</p><p>Temps d'arrivée: 05/09/2014 16:10</p><p>Distance: 28,5 km (07:08)</p><p>Temps déplacement: 03:40</p><p>Vitesse moyenne: 4 km/h</p><p>Vitesse moyenne: 7,8 km/h</p><p>Vitess Max.: 45,8 km/h</p><p>Altitude minimale: 595 m</p><p>Altitude maximale: 2206 m</p><p>Vitesse d'élévation: 358,4 m/h</p><p>Vitesse de descente: -920,5 m/h</p><p>Gain Altitude: 1799 m</p><p>Perte Altitude: -1778 m</p><p>Temps d'élévation: 05:01</p><p>Temps de descente: 01:55</p><hr align="center" width="480" style="height: 2px; width: 517px"/>]]></desc>
    <trkseg>
      <trkpt lat="42.83652" lon="0.60414">
        <ele>595.27</ele>
        <time>2014-05-09T07:02:34Z</time>
      </trkpt>
      <trkpt lat="42.83705" lon="0.60483">
        <ele>602.27</ele>
        <time>2014-05-09T07:03:53Z</time>
      </trkpt>
      <trkpt lat="42.83759" lon="0.60549">
        <ele>607.2</ele>
        <time>2014-05-09T07:04:53Z</time>
      </trkpt>
      <trkpt lat="42.83823" lon="0.60596">
        <ele>616.2</ele>
        <time>2014-05-09T07:05:49Z</time>
      </trkpt>
      <trkpt lat="42.83894" lon="0.6059">
        <ele>624.76</ele>
        <time>2014-05-09T07:06:41Z</time>
      </trkpt>
      <trkpt lat="42.83961" lon="0.60629">
        <ele>631.77</ele>
        <time>2014-05-09T07:07:31Z</time>
      </trkpt>
      <trkpt lat="42.84021" lon="0.60687">
        <ele>637.75</ele>
        <time>2014-05-09T07:08:18Z</time>
      </trkpt>
      <trkpt lat="42.84069" lon="0.6076">
        <ele>643.25</ele>
        <time>2014-05-09T07:09:09Z</time>
      </trkpt>
      <trkpt lat="42.84129" lon="0.60815">
        <ele>652.75</ele>
        <time>2014-05-09T07:09:58Z</time>
      </trkpt>
      <trkpt lat="42.84195" lon="0.60858">
        <ele>663.98</ele>
        <time>2014-05-09T07:10:53Z</time>
      </trkpt>
      <trkpt lat="42.84259" lon="0.60905">
        <ele>682.2</ele>
        <time>2014-05-09T07:11:46Z</time>
      </trkpt>
      <trkpt lat="42.84309" lon="0.60978">
        <ele>689.24</ele>
        <time>2014-05-09T07:12:38Z</time>
      </trkpt>
      <trkpt lat="42.84369" lon="0.61036">
        <ele>701.2</ele>
        <time>2014-05-09T07:13:21Z</time>
      </trkpt>
      <trkpt lat="42.84425" lon="0.61096">
        <ele>707.98</ele>
        <time>2014-05-09T07:14:06Z</time>
      </trkpt>
      <trkpt lat="42.84493" lon="0.61131">
        <ele>719</ele>
        <time>2014-05-09T07:14:53Z</time>
      </trkpt>
      <trkpt lat="42.84564" lon="0.6115">
        <ele>741.98</ele>
        <time>2014-05-09T07:15:59Z</time>
      </trkpt>
      <trkpt lat="42.84636" lon="0.61161">
        <ele>752.25</ele>
        <time>2014-05-09T07:16:46Z</time>
      </trkpt>
      <trkpt lat="42.84704" lon="0.61122">
        <ele>754.27</ele>
        <time>2014-05-09T07:17:29Z</time>
      </trkpt>
      <trkpt lat="42.84758" lon="0.61056">
        <ele>762.01</ele>
        <time>2014-05-09T07:18:12Z</time>
      </trkpt>
      <trkpt lat="42.84829" lon="0.61036">
        <ele>771.75</ele>
        <time>2014-05-09T07:18:51Z</time>
      </trkpt>
      <trkpt lat="42.84898" lon="0.61002">
        <ele>782.75</ele>
        <time>2014-05-09T07:19:34Z</time>
      </trkpt>
      <trkpt lat="42.84862" lon="0.61088">
        <ele>798.75</ele>
        <time>2014-05-09T07:20:58Z</time>
      </trkpt>
      <trkpt lat="42.84821" lon="0.61169">
        <ele>806.2</ele>
        <time>2014-05-09T07:21:42Z</time>
      </trkpt>
      <trkpt lat="42.84892" lon="0.61193">
        <ele>829.76</ele>
        <time>2014-05-09T07:23:53Z</time>
      </trkpt>
      <trkpt lat="42.84958" lon="0.6115">
        <ele>839.76</ele>
        <time>2014-05-09T07:24:33Z</time>
      </trkpt>
      <trkpt lat="42.8503" lon="0.61139">
        <ele>849.13</ele>
        <time>2014-05-09T07:25:10Z</time>
      </trkpt>
      <trkpt lat="42.85067" lon="0.61223">
        <ele>856.74</ele>
        <time>2014-05-09T07:25:51Z</time>
      </trkpt>
      <trkpt lat="42.8506" lon="0.61322">
        <ele>893.25</ele>
        <time>2014-05-09T07:40:27Z</time>
      </trkpt>
      <trkpt lat="42.85133" lon="0.6132">
        <ele>897.27</ele>
        <time>2014-05-09T07:41:56Z</time>
      </trkpt>
      <trkpt lat="42.85205" lon="0.61326">
        <ele>903.2</ele>
        <time>2014-05-09T07:42:44Z</time>
      </trkpt>
      <trkpt lat="42.85229" lon="0.6142">
        <ele>914.25</ele>
        <time>2014-05-09T07:43:15Z</time>
      </trkpt>
      <trkpt lat="42.85237" lon="0.61519">
        <ele>921.01</ele>
        <time>2014-05-09T07:44:50Z</time>
      </trkpt>
      <trkpt lat="42.85208" lon="0.61609">
        <ele>931.94</ele>
        <time>2014-05-09T07:45:40Z</time>
      </trkpt>
      <trkpt lat="42.85232" lon="0.61702">
        <ele>944.75</ele>
        <time>2014-05-09T07:46:20Z</time>
      </trkpt>
      <trkpt lat="42.85223" lon="0.618">
        <ele>957.2</ele>
        <time>2014-05-09T07:47:16Z</time>
      </trkpt>
      <trkpt lat="42.852" lon="0.61895">
        <ele>965.77</ele>
        <time>2014-05-09T07:48:07Z</time>
      </trkpt>
      <trkpt lat="42.85165" lon="0.6198">
        <ele>975.98</ele>
        <time>2014-05-09T07:48:57Z</time>
      </trkpt>
      <trkpt lat="42.85151" lon="0.62077">
        <ele>988.2</ele>
        <time>2014-05-09T07:49:40Z</time>
      </trkpt>
      <trkpt lat="42.85151" lon="0.61978">
        <ele>998.76</ele>
        <time>2014-05-09T07:50:22Z</time>
      </trkpt>
      <trkpt lat="42.85142" lon="0.6188">
        <ele>1003.26</ele>
        <time>2014-05-09T07:51:03Z</time>
      </trkpt>
      <trkpt lat="42.85072" lon="0.6185">
        <ele>1008.2</ele>
        <time>2014-05-09T07:51:42Z</time>
      </trkpt>
      <trkpt lat="42.85002" lon="0.61826">
        <ele>1015.01</ele>
        <time>2014-05-09T07:52:24Z</time>
      </trkpt>
      <trkpt lat="42.84934" lon="0.61865">
        <ele>1023.25</ele>
        <time>2014-05-09T07:53:03Z</time>
      </trkpt>
      <trkpt lat="42.84861" lon="0.61867">
        <ele>1030.02</ele>
        <time>2014-05-09T07:53:43Z</time>
      </trkpt>
      <trkpt lat="42.84791" lon="0.61893">
        <ele>1035.75</ele>
        <time>2014-05-09T07:54:23Z</time>
      </trkpt>
      <trkpt lat="42.84721" lon="0.61918">
        <ele>1044.23</ele>
        <time>2014-05-09T07:55:03Z</time>
      </trkpt>
      <trkpt lat="42.84671" lon="0.61993">
        <ele>1052.24</ele>
        <time>2014-05-09T07:55:46Z</time>
      </trkpt>
      <trkpt lat="42.84631" lon="0.62077">
        <ele>1059.2</ele>
        <time>2014-05-09T07:56:28Z</time>
      </trkpt>
      <trkpt lat="42.84564" lon="0.62118">
        <ele>1067.94</ele>
        <time>2014-05-09T07:57:07Z</time>
      </trkpt>
      <trkpt lat="42.8449" lon="0.62114">
        <ele>1080.13</ele>
        <time>2014-05-09T07:57:47Z</time>
      </trkpt>
      <trkpt lat="42.84427" lon="0.62066">
        <ele>1088.13</ele>
        <time>2014-05-09T07:58:20Z</time>
      </trkpt>
      <trkpt lat="42.84463" lon="0.62152">
        <ele>1097.27</ele>
        <time>2014-05-09T07:59:19Z</time>
      </trkpt>
      <trkpt lat="42.8453" lon="0.62193">
        <ele>1102.75</ele>
        <time>2014-05-09T08:00:01Z</time>
      </trkpt>
      <trkpt lat="42.84592" lon="0.62247">
        <ele>1109.2</ele>
        <time>2014-05-09T08:00:43Z</time>
      </trkpt>
      <trkpt lat="42.84662" lon="0.62221">
        <ele>1115.02</ele>
        <time>2014-05-09T08:01:17Z</time>
      </trkpt>
      <trkpt lat="42.84722" lon="0.62165">
        <ele>1121.01</ele>
        <time>2014-05-09T08:01:53Z</time>
      </trkpt>
      <trkpt lat="42.84792" lon="0.62186">
        <ele>1127.2</ele>
        <time>2014-05-09T08:02:32Z</time>
      </trkpt>
      <trkpt lat="42.84861" lon="0.62221">
        <ele>1133.02</ele>
        <time>2014-05-09T08:03:10Z</time>
      </trkpt>
      <trkpt lat="42.8479" lon="0.62251">
        <ele>1166.77</ele>
        <time>2014-05-09T08:21:49Z</time>
      </trkpt>
      <trkpt lat="42.84727" lon="0.62304">
        <ele>1172.26</ele>
        <time>2014-05-09T08:22:33Z</time>
      </trkpt>
      <trkpt lat="42.84686" lon="0.62386">
        <ele>1173.27</ele>
        <time>2014-05-09T08:23:11Z</time>
      </trkpt>
      <trkpt lat="42.84627" lon="0.62444">
        <ele>1176.25</ele>
        <time>2014-05-09T08:23:51Z</time>
      </trkpt>
      <trkpt lat="42.84554" lon="0.62444">
        <ele>1183.75</ele>
        <time>2014-05-09T08:24:40Z</time>
      </trkpt>
      <trkpt lat="42.84498" lon="0.6238">
        <ele>1199</ele>
        <time>2014-05-09T08:25:24Z</time>
      </trkpt>
      <trkpt lat="42.84442" lon="0.6244">
        <ele>1205.02</ele>
        <time>2014-05-09T08:26:07Z</time>
      </trkpt>
      <trkpt lat="42.84385" lon="0.62502">
        <ele>1208.2</ele>
        <time>2014-05-09T08:26:45Z</time>
      </trkpt>
      <trkpt lat="42.84315" lon="0.6253">
        <ele>1218.2</ele>
        <time>2014-05-09T08:27:23Z</time>
      </trkpt>
      <trkpt lat="42.84253" lon="0.62581">
        <ele>1227.2</ele>
        <time>2014-05-09T08:28:04Z</time>
      </trkpt>
      <trkpt lat="42.84224" lon="0.62671">
        <ele>1236</ele>
        <time>2014-05-09T08:28:41Z</time>
      </trkpt>
      <trkpt lat="42.84176" lon="0.62747">
        <ele>1242.02</ele>
        <time>2014-05-09T08:29:17Z</time>
      </trkpt>
      <trkpt lat="42.84238" lon="0.62691">
        <ele>1251.14</ele>
        <time>2014-05-09T08:30:05Z</time>
      </trkpt>
      <trkpt lat="42.84294" lon="0.62629">
        <ele>1256.76</ele>
        <time>2014-05-09T08:30:40Z</time>
      </trkpt>
      <trkpt lat="42.84366" lon="0.62639">
        <ele>1262.74</ele>
        <time>2014-05-09T08:31:11Z</time>
      </trkpt>
      <trkpt lat="42.84435" lon="0.62607">
        <ele>1271.01</ele>
        <time>2014-05-09T08:31:52Z</time>
      </trkpt>
      <trkpt lat="42.84502" lon="0.62646">
        <ele>1278.2</ele>
        <time>2014-05-09T08:32:32Z</time>
      </trkpt>
      <trkpt lat="42.84553" lon="0.62716">
        <ele>1286.13</ele>
        <time>2014-05-09T08:33:10Z</time>
      </trkpt>
      <trkpt lat="42.84589" lon="0.62804">
        <ele>1296.7</ele>
        <time>2014-05-09T08:33:46Z</time>
      </trkpt>
      <trkpt lat="42.84595" lon="0.62903">
        <ele>1305.23</ele>
        <time>2014-05-09T08:34:21Z</time>
      </trkpt>
      <trkpt lat="42.8454" lon="0.62968">
        <ele>1322.09</ele>
        <time>2014-05-09T08:34:40Z</time>
      </trkpt>
      <trkpt lat="42.84487" lon="0.63036">
        <ele>1326.14</ele>
        <time>2014-05-09T08:35:12Z</time>
      </trkpt>
      <trkpt lat="42.84425" lon="0.63094">
        <ele>1330.14</ele>
        <time>2014-05-09T08:35:45Z</time>
      </trkpt>
      <trkpt lat="42.84385" lon="0.63176">
        <ele>1333.77</ele>
        <time>2014-05-09T08:36:16Z</time>
      </trkpt>
      <trkpt lat="42.84356" lon="0.63268">
        <ele>1338.75</ele>
        <time>2014-05-09T08:36:46Z</time>
      </trkpt>
      <trkpt lat="42.8433" lon="0.6336">
        <ele>1345.01</ele>
        <time>2014-05-09T08:37:17Z</time>
      </trkpt>
      <trkpt lat="42.84365" lon="0.63446">
        <ele>1351.02</ele>
        <time>2014-05-09T08:37:50Z</time>
      </trkpt>
      <trkpt lat="42.84436" lon="0.63472">
        <ele>1360</ele>
        <time>2014-05-09T08:38:25Z</time>
      </trkpt>
      <trkpt lat="42.84507" lon="0.63495">
        <ele>1369.2</ele>
        <time>2014-05-09T08:39:00Z</time>
      </trkpt>
      <trkpt lat="42.84555" lon="0.6357">
        <ele>1373.25</ele>
        <time>2014-05-09T08:39:33Z</time>
      </trkpt>
      <trkpt lat="42.84562" lon="0.63669">
        <ele>1390.26</ele>
        <time>2014-05-09T09:04:47Z</time>
      </trkpt>
      <trkpt lat="42.84533" lon="0.63764">
        <ele>1392.27</ele>
        <time>2014-05-09T09:05:31Z</time>
      </trkpt>
      <trkpt lat="42.84506" lon="0.6386">
        <ele>1395.76</ele>
        <time>2014-05-09T09:05:55Z</time>
      </trkpt>
      <trkpt lat="42.84494" lon="0.63957">
        <ele>1402.73</ele>
        <time>2014-05-09T09:06:08Z</time>
      </trkpt>
      <trkpt lat="42.84564" lon="0.63982">
        <ele>1406.14</ele>
        <time>2014-05-09T09:06:19Z</time>
      </trkpt>
      <trkpt lat="42.84629" lon="0.64032">
        <ele>1405.14</ele>
        <time>2014-05-09T09:06:27Z</time>
      </trkpt>
      <trkpt lat="42.84678" lon="0.64118">
        <ele>1398.01</ele>
        <time>2014-05-09T09:06:37Z</time>
      </trkpt>
      <trkpt lat="42.84731" lon="0.64186">
        <ele>1391.62</ele>
        <time>2014-05-09T09:06:49Z</time>
      </trkpt>
      <trkpt lat="42.84701" lon="0.64279">
        <ele>1375.4</ele>
        <time>2014-05-09T09:11:33Z</time>
      </trkpt>
      <trkpt lat="42.84717" lon="0.64375">
        <ele>1368.02</ele>
        <time>2014-05-09T09:11:50Z</time>
      </trkpt>
      <trkpt lat="42.84748" lon="0.64465">
        <ele>1371.23</ele>
        <time>2014-05-09T09:12:07Z</time>
      </trkpt>
      <trkpt lat="42.84734" lon="0.64564">
        <ele>1366.85</ele>
        <time>2014-05-09T09:12:18Z</time>
      </trkpt>
      <trkpt lat="42.84721" lon="0.64665">
        <ele>1364.89</ele>
        <time>2014-05-09T09:12:29Z</time>
      </trkpt>
      <trkpt lat="42.84795" lon="0.64673">
        <ele>1364.77</ele>
        <time>2014-05-09T09:12:46Z</time>
      </trkpt>
      <trkpt lat="42.84814" lon="0.64768">
        <ele>1367.26</ele>
        <time>2014-05-09T09:12:59Z</time>
      </trkpt>
      <trkpt lat="42.84886" lon="0.64785">
        <ele>1364.27</ele>
        <time>2014-05-09T09:13:34Z</time>
      </trkpt>
      <trkpt lat="42.84923" lon="0.64697">
        <ele>1364.75</ele>
        <time>2014-05-09T09:13:52Z</time>
      </trkpt>
      <trkpt lat="42.8494" lon="0.64596">
        <ele>1364.77</ele>
        <time>2014-05-09T09:14:09Z</time>
      </trkpt>
      <trkpt lat="42.84939" lon="0.64491">
        <ele>1367.53</ele>
        <time>2014-05-09T09:14:23Z</time>
      </trkpt>
      <trkpt lat="42.8496" lon="0.64394">
        <ele>1363.33</ele>
        <time>2014-05-09T09:14:34Z</time>
      </trkpt>
      <trkpt lat="42.84987" lon="0.643">
        <ele>1354.56</ele>
        <time>2014-05-09T09:14:47Z</time>
      </trkpt>
      <trkpt lat="42.85006" lon="0.64206">
        <ele>1353.55</ele>
        <time>2014-05-09T09:14:59Z</time>
      </trkpt>
      <trkpt lat="42.85019" lon="0.64109">
        <ele>1355.13</ele>
        <time>2014-05-09T09:15:10Z</time>
      </trkpt>
      <trkpt lat="42.8502" lon="0.64008">
        <ele>1356.2</ele>
        <time>2014-05-09T09:15:20Z</time>
      </trkpt>
      <trkpt lat="42.85065" lon="0.63922">
        <ele>1355.27</ele>
        <time>2014-05-09T09:15:32Z</time>
      </trkpt>
      <trkpt lat="42.85127" lon="0.6386">
        <ele>1351.65</ele>
        <time>2014-05-09T09:15:43Z</time>
      </trkpt>
      <trkpt lat="42.85174" lon="0.63783">
        <ele>1347.77</ele>
        <time>2014-05-09T09:15:56Z</time>
      </trkpt>
      <trkpt lat="42.85229" lon="0.6371">
        <ele>1346.27</ele>
        <time>2014-05-09T09:16:10Z</time>
      </trkpt>
      <trkpt lat="42.85304" lon="0.63727">
        <ele>1331.47</ele>
        <time>2014-05-09T09:16:24Z</time>
      </trkpt>
      <trkpt lat="42.85356" lon="0.63646">
        <ele>1321.64</ele>
        <time>2014-05-09T09:16:35Z</time>
      </trkpt>
      <trkpt lat="42.85377" lon="0.63549">
        <ele>1319.05</ele>
        <time>2014-05-09T09:16:43Z</time>
      </trkpt>
      <trkpt lat="42.85442" lon="0.63498">
        <ele>1312.35</ele>
        <time>2014-05-09T09:16:54Z</time>
      </trkpt>
      <trkpt lat="42.85514" lon="0.6348">
        <ele>1313.24</ele>
        <time>2014-05-09T09:17:10Z</time>
      </trkpt>
      <trkpt lat="42.85589" lon="0.63465">
        <ele>1312.18</ele>
        <time>2014-05-09T09:17:22Z</time>
      </trkpt>
      <trkpt lat="42.85663" lon="0.63444">
        <ele>1313.27</ele>
        <time>2014-05-09T09:17:34Z</time>
      </trkpt>
      <trkpt lat="42.85734" lon="0.6342">
        <ele>1312.4</ele>
        <time>2014-05-09T09:17:45Z</time>
      </trkpt>
      <trkpt lat="42.85679" lon="0.63483">
        <ele>1312.27</ele>
        <time>2014-05-09T09:19:01Z</time>
      </trkpt>
      <trkpt lat="42.85615" lon="0.6353">
        <ele>1320.23</ele>
        <time>2014-05-09T09:19:51Z</time>
      </trkpt>
      <trkpt lat="42.8555" lon="0.63573">
        <ele>1330.25</ele>
        <time>2014-05-09T09:20:41Z</time>
      </trkpt>
      <trkpt lat="42.8549" lon="0.63631">
        <ele>1338.14</ele>
        <time>2014-05-09T09:21:30Z</time>
      </trkpt>
      <trkpt lat="42.85466" lon="0.63725">
        <ele>1347.13</ele>
        <time>2014-05-09T09:22:19Z</time>
      </trkpt>
      <trkpt lat="42.85445" lon="0.63819">
        <ele>1358.73</ele>
        <time>2014-05-09T09:23:03Z</time>
      </trkpt>
      <trkpt lat="42.85518" lon="0.63824">
        <ele>1371.23</ele>
        <time>2014-05-09T09:23:57Z</time>
      </trkpt>
      <trkpt lat="42.85582" lon="0.63871">
        <ele>1386.13</ele>
        <time>2014-05-09T09:24:57Z</time>
      </trkpt>
      <trkpt lat="42.8563" lon="0.63944">
        <ele>1399.98</ele>
        <time>2014-05-09T09:25:54Z</time>
      </trkpt>
      <trkpt lat="42.8566" lon="0.64034">
        <ele>1414.7</ele>
        <time>2014-05-09T09:26:48Z</time>
      </trkpt>
      <trkpt lat="42.85689" lon="0.64126">
        <ele>1430.98</ele>
        <time>2014-05-09T09:27:31Z</time>
      </trkpt>
      <trkpt lat="42.85699" lon="0.64225">
        <ele>1445.2</ele>
        <time>2014-05-09T09:28:23Z</time>
      </trkpt>
      <trkpt lat="42.85718" lon="0.64319">
        <ele>1462.19</ele>
        <time>2014-05-09T09:29:21Z</time>
      </trkpt>
      <trkpt lat="42.85733" lon="0.64416">
        <ele>1480.98</ele>
        <time>2014-05-09T09:30:20Z</time>
      </trkpt>
      <trkpt lat="42.85734" lon="0.64515">
        <ele>1494.76</ele>
        <time>2014-05-09T09:31:28Z</time>
      </trkpt>
      <trkpt lat="42.85715" lon="0.64609">
        <ele>1499.26</ele>
        <time>2014-05-09T09:32:14Z</time>
      </trkpt>
      <trkpt lat="42.85708" lon="0.64708">
        <ele>1508.25</ele>
        <time>2014-05-09T09:33:41Z</time>
      </trkpt>
      <trkpt lat="42.85684" lon="0.64802">
        <ele>1508.21</ele>
        <time>2014-05-09T09:34:29Z</time>
      </trkpt>
      <trkpt lat="42.85688" lon="0.64901">
        <ele>1517.2</ele>
        <time>2014-05-09T09:35:11Z</time>
      </trkpt>
      <trkpt lat="42.85684" lon="0.65">
        <ele>1526.24</ele>
        <time>2014-05-09T09:35:51Z</time>
      </trkpt>
      <trkpt lat="42.85701" lon="0.65096">
        <ele>1534.26</ele>
        <time>2014-05-09T09:36:54Z</time>
      </trkpt>
      <trkpt lat="42.85703" lon="0.65195">
        <ele>1539.26</ele>
        <time>2014-05-09T09:37:40Z</time>
      </trkpt>
      <trkpt lat="42.85719" lon="0.65291">
        <ele>1559.24</ele>
        <time>2014-05-09T10:07:19Z</time>
      </trkpt>
      <trkpt lat="42.85709" lon="0.6539">
        <ele>1563.2</ele>
        <time>2014-05-09T10:08:22Z</time>
      </trkpt>
      <trkpt lat="42.85672" lon="0.65476">
        <ele>1572.2</ele>
        <time>2014-05-09T10:09:16Z</time>
      </trkpt>
      <trkpt lat="42.85743" lon="0.65452">
        <ele>1594.01</ele>
        <time>2014-05-09T10:10:54Z</time>
      </trkpt>
      <trkpt lat="42.85733" lon="0.65551">
        <ele>1611.2</ele>
        <time>2014-05-09T10:12:46Z</time>
      </trkpt>
      <trkpt lat="42.85732" lon="0.6565">
        <ele>1616.25</ele>
        <time>2014-05-09T10:13:42Z</time>
      </trkpt>
      <trkpt lat="42.85735" lon="0.65748">
        <ele>1626.25</ele>
        <time>2014-05-09T10:14:38Z</time>
      </trkpt>
      <trkpt lat="42.85717" lon="0.65845">
        <ele>1637.25</ele>
        <time>2014-05-09T10:15:32Z</time>
      </trkpt>
      <trkpt lat="42.85696" lon="0.65939">
        <ele>1645.14</ele>
        <time>2014-05-09T10:16:23Z</time>
      </trkpt>
      <trkpt lat="42.8566" lon="0.66025">
        <ele>1657.2</ele>
        <time>2014-05-09T10:17:30Z</time>
      </trkpt>
      <trkpt lat="42.85593" lon="0.6606">
        <ele>1667.02</ele>
        <time>2014-05-09T10:18:20Z</time>
      </trkpt>
      <trkpt lat="42.85545" lon="0.65987">
        <ele>1674.27</ele>
        <time>2014-05-09T10:21:24Z</time>
      </trkpt>
      <trkpt lat="42.85474" lon="0.65967">
        <ele>1680.2</ele>
        <time>2014-05-09T10:22:17Z</time>
      </trkpt>
      <trkpt lat="42.85421" lon="0.66036">
        <ele>1695.2</ele>
        <time>2014-05-09T10:23:17Z</time>
      </trkpt>
      <trkpt lat="42.85414" lon="0.66135">
        <ele>1707.23</ele>
        <time>2014-05-09T10:24:11Z</time>
      </trkpt>
      <trkpt lat="42.85407" lon="0.66233">
        <ele>1729.2</ele>
        <time>2014-05-09T10:26:16Z</time>
      </trkpt>
      <trkpt lat="42.85369" lon="0.66317">
        <ele>1755.02</ele>
        <time>2014-05-09T10:28:42Z</time>
      </trkpt>
      <trkpt lat="42.85326" lon="0.66396">
        <ele>1785.25</ele>
        <time>2014-05-09T10:31:25Z</time>
      </trkpt>
      <trkpt lat="42.85257" lon="0.66364">
        <ele>1794.01</ele>
        <time>2014-05-09T10:32:24Z</time>
      </trkpt>
      <trkpt lat="42.85219" lon="0.66281">
        <ele>1804.23</ele>
        <time>2014-05-09T10:33:32Z</time>
      </trkpt>
      <trkpt lat="42.85164" lon="0.66218">
        <ele>1812.26</ele>
        <time>2014-05-09T10:34:24Z</time>
      </trkpt>
      <trkpt lat="42.85167" lon="0.66317">
        <ele>1841.14</ele>
        <time>2014-05-09T10:39:20Z</time>
      </trkpt>
      <trkpt lat="42.85168" lon="0.66416">
        <ele>1848</ele>
        <time>2014-05-09T10:40:15Z</time>
      </trkpt>
      <trkpt lat="42.85143" lon="0.6651">
        <ele>1862.25</ele>
        <time>2014-05-09T10:41:37Z</time>
      </trkpt>
      <trkpt lat="42.85163" lon="0.66607">
        <ele>1883.27</ele>
        <time>2014-05-09T10:48:26Z</time>
      </trkpt>
      <trkpt lat="42.85183" lon="0.66701">
        <ele>1893.26</ele>
        <time>2014-05-09T10:50:03Z</time>
      </trkpt>
      <trkpt lat="42.85185" lon="0.668">
        <ele>1898.2</ele>
        <time>2014-05-09T10:51:18Z</time>
      </trkpt>
      <trkpt lat="42.85161" lon="0.66894">
        <ele>1916.2</ele>
        <time>2014-05-09T10:53:06Z</time>
      </trkpt>
      <trkpt lat="42.85134" lon="0.66987">
        <ele>1928.76</ele>
        <time>2014-05-09T10:54:22Z</time>
      </trkpt>
      <trkpt lat="42.85141" lon="0.67085">
        <ele>1941.27</ele>
        <time>2014-05-09T10:55:51Z</time>
      </trkpt>
      <trkpt lat="42.85159" lon="0.67182">
        <ele>1947.02</ele>
        <time>2014-05-09T10:57:19Z</time>
      </trkpt>
      <trkpt lat="42.85183" lon="0.67276">
        <ele>1956.02</ele>
        <time>2014-05-09T11:00:13Z</time>
      </trkpt>
      <trkpt lat="42.85228" lon="0.67356">
        <ele>1970.14</ele>
        <time>2014-05-09T11:03:01Z</time>
      </trkpt>
      <trkpt lat="42.85271" lon="0.67435">
        <ele>1993.27</ele>
        <time>2014-05-09T11:14:29Z</time>
      </trkpt>
      <trkpt lat="42.85343" lon="0.67446">
        <ele>2011.76</ele>
        <time>2014-05-09T11:16:35Z</time>
      </trkpt>
      <trkpt lat="42.85367" lon="0.67538">
        <ele>2044.75</ele>
        <time>2014-05-09T11:19:39Z</time>
      </trkpt>
      <trkpt lat="42.85383" lon="0.67635">
        <ele>2073.2</ele>
        <time>2014-05-09T11:22:17Z</time>
      </trkpt>
      <trkpt lat="42.8533" lon="0.67703">
        <ele>2086.26</ele>
        <time>2014-05-09T11:23:49Z</time>
      </trkpt>
      <trkpt lat="42.85273" lon="0.67763">
        <ele>2096.2</ele>
        <time>2014-05-09T11:25:40Z</time>
      </trkpt>
      <trkpt lat="42.85203" lon="0.67796">
        <ele>2107.25</ele>
        <time>2014-05-09T11:40:56Z</time>
      </trkpt>
      <trkpt lat="42.85133" lon="0.67776">
        <ele>2106.27</ele>
        <time>2014-05-09T11:41:33Z</time>
      </trkpt>
      <trkpt lat="42.85058" lon="0.67772">
        <ele>2106.27</ele>
        <time>2014-05-09T11:42:14Z</time>
      </trkpt>
      <trkpt lat="42.84984" lon="0.67776">
        <ele>2107.27</ele>
        <time>2014-05-09T11:43:02Z</time>
      </trkpt>
      <trkpt lat="42.84908" lon="0.67778">
        <ele>2106.28</ele>
        <time>2014-05-09T11:43:35Z</time>
      </trkpt>
      <trkpt lat="42.84841" lon="0.67744">
        <ele>2106.27</ele>
        <time>2014-05-09T11:45:08Z</time>
      </trkpt>
      <trkpt lat="42.84769" lon="0.67729">
        <ele>2122.14</ele>
        <time>2014-05-09T11:47:26Z</time>
      </trkpt>
      <trkpt lat="42.8473" lon="0.67645">
        <ele>2151.24</ele>
        <time>2014-05-09T11:49:49Z</time>
      </trkpt>
      <trkpt lat="42.84689" lon="0.67564">
        <ele>2158.13</ele>
        <time>2014-05-09T11:52:38Z</time>
      </trkpt>
      <trkpt lat="42.84623" lon="0.67525">
        <ele>2175.01</ele>
        <time>2014-05-09T11:54:58Z</time>
      </trkpt>
      <trkpt lat="42.8461" lon="0.67429">
        <ele>2206.27</ele>
        <time>2014-05-09T12:09:02Z</time>
      </trkpt>
      <trkpt lat="42.84565" lon="0.67351">
        <ele>2194.53</ele>
        <time>2014-05-09T12:10:05Z</time>
      </trkpt>
      <trkpt lat="42.84533" lon="0.67261">
        <ele>2188.27</ele>
        <time>2014-05-09T12:11:05Z</time>
      </trkpt>
      <trkpt lat="42.84495" lon="0.67175">
        <ele>2177.27</ele>
        <time>2014-05-09T12:11:27Z</time>
      </trkpt>
      <trkpt lat="42.84463" lon="0.67083">
        <ele>2170.91</ele>
        <time>2014-05-09T12:11:40Z</time>
      </trkpt>
      <trkpt lat="42.84449" lon="0.66987">
        <ele>2155.56</ele>
        <time>2014-05-09T12:12:48Z</time>
      </trkpt>
      <trkpt lat="42.84432" lon="0.66886">
        <ele>2147.73</ele>
        <time>2014-05-09T12:13:00Z</time>
      </trkpt>
      <trkpt lat="42.84422" lon="0.66785">
        <ele>2140.68</ele>
        <time>2014-05-09T12:13:13Z</time>
      </trkpt>
      <trkpt lat="42.84386" lon="0.66695">
        <ele>2133.43</ele>
        <time>2014-05-09T12:13:28Z</time>
      </trkpt>
      <trkpt lat="42.84334" lon="0.66624">
        <ele>2118.59</ele>
        <time>2014-05-09T12:14:33Z</time>
      </trkpt>
      <trkpt lat="42.84289" lon="0.66542">
        <ele>2097.61</ele>
        <time>2014-05-09T12:14:47Z</time>
      </trkpt>
      <trkpt lat="42.84239" lon="0.66465">
        <ele>2095.77</ele>
        <time>2014-05-09T12:15:00Z</time>
      </trkpt>
      <trkpt lat="42.84191" lon="0.6639">
        <ele>2093.78</ele>
        <time>2014-05-09T12:15:10Z</time>
      </trkpt>
      <trkpt lat="42.84158" lon="0.66302">
        <ele>2090.8</ele>
        <time>2014-05-09T12:15:21Z</time>
      </trkpt>
      <trkpt lat="42.84122" lon="0.66212">
        <ele>2084.1</ele>
        <time>2014-05-09T12:15:38Z</time>
      </trkpt>
      <trkpt lat="42.84065" lon="0.6615">
        <ele>2078.29</ele>
        <time>2014-05-09T12:15:54Z</time>
      </trkpt>
      <trkpt lat="42.84006" lon="0.66092">
        <ele>2075.27</ele>
        <time>2014-05-09T12:16:23Z</time>
      </trkpt>
      <trkpt lat="42.83944" lon="0.66042">
        <ele>2052.44</ele>
        <time>2014-05-09T12:17:20Z</time>
      </trkpt>
      <trkpt lat="42.83882" lon="0.65991">
        <ele>2046.3</ele>
        <time>2014-05-09T12:17:40Z</time>
      </trkpt>
      <trkpt lat="42.83814" lon="0.65944">
        <ele>2043.77</ele>
        <time>2014-05-09T12:18:21Z</time>
      </trkpt>
      <trkpt lat="42.83746" lon="0.65907">
        <ele>2010.86</ele>
        <time>2014-05-09T12:19:31Z</time>
      </trkpt>
      <trkpt lat="42.83687" lon="0.65845">
        <ele>1991.42</ele>
        <time>2014-05-09T12:19:49Z</time>
      </trkpt>
      <trkpt lat="42.83633" lon="0.65778">
        <ele>1987.27</ele>
        <time>2014-05-09T12:20:34Z</time>
      </trkpt>
      <trkpt lat="42.83576" lon="0.65716">
        <ele>1982.27</ele>
        <time>2014-05-09T12:22:39Z</time>
      </trkpt>
      <trkpt lat="42.83503" lon="0.65727">
        <ele>1974.39</ele>
        <time>2014-05-09T12:23:39Z</time>
      </trkpt>
      <trkpt lat="42.83438" lon="0.65682">
        <ele>1967.39</ele>
        <time>2014-05-09T12:24:08Z</time>
      </trkpt>
      <trkpt lat="42.83394" lon="0.656">
        <ele>1958.8</ele>
        <time>2014-05-09T12:26:25Z</time>
      </trkpt>
      <trkpt lat="42.83349" lon="0.65523">
        <ele>1944.27</ele>
        <time>2014-05-09T12:28:52Z</time>
      </trkpt>
      <trkpt lat="42.83302" lon="0.65448">
        <ele>1942.27</ele>
        <time>2014-05-09T12:29:22Z</time>
      </trkpt>
      <trkpt lat="42.83232" lon="0.65412">
        <ele>1943.27</ele>
        <time>2014-05-09T12:29:51Z</time>
      </trkpt>
      <trkpt lat="42.83163" lon="0.65386">
        <ele>1944.27</ele>
        <time>2014-05-09T12:30:21Z</time>
      </trkpt>
      <trkpt lat="42.83157" lon="0.65279">
        <ele>1945.89</ele>
        <time>2014-05-09T12:30:41Z</time>
      </trkpt>
      <trkpt lat="42.8317" lon="0.65182">
        <ele>1940.28</ele>
        <time>2014-05-09T12:34:14Z</time>
      </trkpt>
      <trkpt lat="42.8319" lon="0.65085">
        <ele>1934.3</ele>
        <time>2014-05-09T12:34:55Z</time>
      </trkpt>
      <trkpt lat="42.83131" lon="0.65027">
        <ele>1931.27</ele>
        <time>2014-05-09T12:36:51Z</time>
      </trkpt>
      <trkpt lat="42.83093" lon="0.64935">
        <ele>1935.26</ele>
        <time>2014-05-09T12:38:30Z</time>
      </trkpt>
      <trkpt lat="42.83054" lon="0.64849">
        <ele>1936.26</ele>
        <time>2014-05-09T12:38:48Z</time>
      </trkpt>
      <trkpt lat="42.83009" lon="0.6477">
        <ele>1935.27</ele>
        <time>2014-05-09T12:39:26Z</time>
      </trkpt>
      <trkpt lat="42.8298" lon="0.64673">
        <ele>1936.2</ele>
        <time>2014-05-09T12:39:40Z</time>
      </trkpt>
      <trkpt lat="42.82964" lon="0.64577">
        <ele>1930.98</ele>
        <time>2014-05-09T12:39:51Z</time>
      </trkpt>
      <trkpt lat="42.8297" lon="0.64478">
        <ele>1923.12</ele>
        <time>2014-05-09T12:40:03Z</time>
      </trkpt>
      <trkpt lat="42.82986" lon="0.64379">
        <ele>1916.3</ele>
        <time>2014-05-09T12:40:20Z</time>
      </trkpt>
      <trkpt lat="42.82986" lon="0.64279">
        <ele>1905.93</ele>
        <time>2014-05-09T12:40:47Z</time>
      </trkpt>
      <trkpt lat="42.82971" lon="0.64182">
        <ele>1867.9</ele>
        <time>2014-05-09T12:42:18Z</time>
      </trkpt>
      <trkpt lat="42.82946" lon="0.6409">
        <ele>1852.34</ele>
        <time>2014-05-09T12:43:10Z</time>
      </trkpt>
      <trkpt lat="42.82912" lon="0.64002">
        <ele>1839.71</ele>
        <time>2014-05-09T12:43:30Z</time>
      </trkpt>
      <trkpt lat="42.829" lon="0.63901">
        <ele>1833.52</ele>
        <time>2014-05-09T12:43:51Z</time>
      </trkpt>
      <trkpt lat="42.82869" lon="0.63811">
        <ele>1825.36</ele>
        <time>2014-05-09T12:44:06Z</time>
      </trkpt>
      <trkpt lat="42.82837" lon="0.63721">
        <ele>1810.59</ele>
        <time>2014-05-09T12:44:34Z</time>
      </trkpt>
      <trkpt lat="42.82824" lon="0.63624">
        <ele>1793.81</ele>
        <time>2014-05-09T12:44:58Z</time>
      </trkpt>
      <trkpt lat="42.82763" lon="0.63568">
        <ele>1777.84</ele>
        <time>2014-05-09T12:46:27Z</time>
      </trkpt>
      <trkpt lat="42.82704" lon="0.63502">
        <ele>1743.47</ele>
        <time>2014-05-09T12:47:06Z</time>
      </trkpt>
      <trkpt lat="42.82655" lon="0.63427">
        <ele>1732.08</ele>
        <time>2014-05-09T12:47:23Z</time>
      </trkpt>
      <trkpt lat="42.82592" lon="0.63377">
        <ele>1716.35</ele>
        <time>2014-05-09T12:47:32Z</time>
      </trkpt>
      <trkpt lat="42.82584" lon="0.63274">
        <ele>1687.35</ele>
        <time>2014-05-09T12:52:16Z</time>
      </trkpt>
      <trkpt lat="42.82633" lon="0.63191">
        <ele>1685.05</ele>
        <time>2014-05-09T12:52:24Z</time>
      </trkpt>
      <trkpt lat="42.82694" lon="0.63124">
        <ele>1680.18</ele>
        <time>2014-05-09T12:52:32Z</time>
      </trkpt>
      <trkpt lat="42.82638" lon="0.63189">
        <ele>1652.26</ele>
        <time>2014-05-09T12:56:31Z</time>
      </trkpt>
      <trkpt lat="42.82589" lon="0.63262">
        <ele>1660.24</ele>
        <time>2014-05-09T12:57:16Z</time>
      </trkpt>
      <trkpt lat="42.82564" lon="0.63354">
        <ele>1671.64</ele>
        <time>2014-05-09T12:58:27Z</time>
      </trkpt>
      <trkpt lat="42.82579" lon="0.63452">
        <ele>1681.01</ele>
        <time>2014-05-09T12:59:43Z</time>
      </trkpt>
      <trkpt lat="42.82606" lon="0.63545">
        <ele>1686.24</ele>
        <time>2014-05-09T13:02:14Z</time>
      </trkpt>
      <trkpt lat="42.82611" lon="0.63646">
        <ele>1688.26</ele>
        <time>2014-05-09T13:02:25Z</time>
      </trkpt>
      <trkpt lat="42.82592" lon="0.6374">
        <ele>1680.77</ele>
        <time>2014-05-09T13:05:16Z</time>
      </trkpt>
      <trkpt lat="42.82555" lon="0.6365">
        <ele>1657.19</ele>
        <time>2014-05-09T13:06:11Z</time>
      </trkpt>
      <trkpt lat="42.82499" lon="0.6359">
        <ele>1644.27</ele>
        <time>2014-05-09T13:06:26Z</time>
      </trkpt>
      <trkpt lat="42.82451" lon="0.6351">
        <ele>1637.43</ele>
        <time>2014-05-09T13:06:56Z</time>
      </trkpt>
      <trkpt lat="42.82392" lon="0.6345">
        <ele>1626.63</ele>
        <time>2014-05-09T13:07:23Z</time>
      </trkpt>
      <trkpt lat="42.82326" lon="0.63403">
        <ele>1620.13</ele>
        <time>2014-05-09T13:07:43Z</time>
      </trkpt>
      <trkpt lat="42.82282" lon="0.63324">
        <ele>1610.4</ele>
        <time>2014-05-09T13:08:20Z</time>
      </trkpt>
      <trkpt lat="42.82261" lon="0.63227">
        <ele>1585.95</ele>
        <time>2014-05-09T13:10:06Z</time>
      </trkpt>
      <trkpt lat="42.82213" lon="0.63146">
        <ele>1570.67</ele>
        <time>2014-05-09T13:10:22Z</time>
      </trkpt>
      <trkpt lat="42.82161" lon="0.63071">
        <ele>1561.5</ele>
        <time>2014-05-09T13:10:38Z</time>
      </trkpt>
      <trkpt lat="42.82137" lon="0.62976">
        <ele>1548.48</ele>
        <time>2014-05-09T13:10:54Z</time>
      </trkpt>
      <trkpt lat="42.82095" lon="0.62892">
        <ele>1532.3</ele>
        <time>2014-05-09T13:12:04Z</time>
      </trkpt>
      <trkpt lat="42.82063" lon="0.62804">
        <ele>1525.84</ele>
        <time>2014-05-09T13:12:37Z</time>
      </trkpt>
      <trkpt lat="42.8214" lon="0.62789">
        <ele>1506.31</ele>
        <time>2014-05-09T13:13:33Z</time>
      </trkpt>
      <trkpt lat="42.82211" lon="0.62819">
        <ele>1499.55</ele>
        <time>2014-05-09T13:13:46Z</time>
      </trkpt>
      <trkpt lat="42.82284" lon="0.62832">
        <ele>1472.77</ele>
        <time>2014-05-09T13:14:48Z</time>
      </trkpt>
      <trkpt lat="42.8225" lon="0.62738">
        <ele>1461.37</ele>
        <time>2014-05-09T13:15:03Z</time>
      </trkpt>
      <trkpt lat="42.82226" lon="0.62639">
        <ele>1443.77</ele>
        <time>2014-05-09T13:15:21Z</time>
      </trkpt>
      <trkpt lat="42.82209" lon="0.62541">
        <ele>1422.6</ele>
        <time>2014-05-09T13:15:37Z</time>
      </trkpt>
      <trkpt lat="42.82204" lon="0.62438">
        <ele>1405.3</ele>
        <time>2014-05-09T13:17:08Z</time>
      </trkpt>
      <trkpt lat="42.8217" lon="0.6235">
        <ele>1372.33</ele>
        <time>2014-05-09T13:17:28Z</time>
      </trkpt>
      <trkpt lat="42.82165" lon="0.62251">
        <ele>1357.59</ele>
        <time>2014-05-09T13:17:46Z</time>
      </trkpt>
      <trkpt lat="42.82135" lon="0.62154">
        <ele>1341.49</ele>
        <time>2014-05-09T13:18:01Z</time>
      </trkpt>
      <trkpt lat="42.82197" lon="0.62221">
        <ele>1307.74</ele>
        <time>2014-05-09T13:19:26Z</time>
      </trkpt>
      <trkpt lat="42.82251" lon="0.62292">
        <ele>1302.98</ele>
        <time>2014-05-09T13:19:33Z</time>
      </trkpt>
      <trkpt lat="42.82313" lon="0.6236">
        <ele>1299.6</ele>
        <time>2014-05-09T13:19:40Z</time>
      </trkpt>
      <trkpt lat="42.82388" lon="0.62347">
        <ele>1298.8</ele>
        <time>2014-05-09T13:19:52Z</time>
      </trkpt>
      <trkpt lat="42.82462" lon="0.62362">
        <ele>1295.43</ele>
        <time>2014-05-09T13:20:02Z</time>
      </trkpt>
      <trkpt lat="42.82499" lon="0.62274">
        <ele>1294.77</ele>
        <time>2014-05-09T13:20:21Z</time>
      </trkpt>
      <trkpt lat="42.82575" lon="0.62253">
        <ele>1280.61</ele>
        <time>2014-05-09T13:20:35Z</time>
      </trkpt>
      <trkpt lat="42.82645" lon="0.62227">
        <ele>1278.27</ele>
        <time>2014-05-09T13:20:54Z</time>
      </trkpt>
      <trkpt lat="42.82664" lon="0.62131">
        <ele>1275.33</ele>
        <time>2014-05-09T13:21:22Z</time>
      </trkpt>
      <trkpt lat="42.82735" lon="0.62096">
        <ele>1261.8</ele>
        <time>2014-05-09T13:22:01Z</time>
      </trkpt>
      <trkpt lat="42.82809" lon="0.62107">
        <ele>1252.75</ele>
        <time>2014-05-09T13:22:27Z</time>
      </trkpt>
      <trkpt lat="42.82884" lon="0.62088">
        <ele>1250.89</ele>
        <time>2014-05-09T13:23:31Z</time>
      </trkpt>
      <trkpt lat="42.82935" lon="0.62019">
        <ele>1248.39</ele>
        <time>2014-05-09T13:23:44Z</time>
      </trkpt>
      <trkpt lat="42.82981" lon="0.61942">
        <ele>1248.27</ele>
        <time>2014-05-09T13:24:03Z</time>
      </trkpt>
      <trkpt lat="42.83052" lon="0.61968">
        <ele>1242.77</ele>
        <time>2014-05-09T13:28:50Z</time>
      </trkpt>
      <trkpt lat="42.83126" lon="0.61978">
        <ele>1239.4</ele>
        <time>2014-05-09T13:29:08Z</time>
      </trkpt>
      <trkpt lat="42.83199" lon="0.61987">
        <ele>1236.33</ele>
        <time>2014-05-09T13:29:28Z</time>
      </trkpt>
      <trkpt lat="42.83157" lon="0.61903">
        <ele>1225.33</ele>
        <time>2014-05-09T13:30:08Z</time>
      </trkpt>
      <trkpt lat="42.83085" lon="0.61893">
        <ele>1217.27</ele>
        <time>2014-05-09T13:31:08Z</time>
      </trkpt>
      <trkpt lat="42.83029" lon="0.6183">
        <ele>1212.39</ele>
        <time>2014-05-09T13:31:57Z</time>
      </trkpt>
      <trkpt lat="42.82981" lon="0.61753">
        <ele>1209.53</ele>
        <time>2014-05-09T13:32:19Z</time>
      </trkpt>
      <trkpt lat="42.82962" lon="0.61659">
        <ele>1196.74</ele>
        <time>2014-05-09T13:32:59Z</time>
      </trkpt>
      <trkpt lat="42.82889" lon="0.61663">
        <ele>1152.4</ele>
        <time>2014-05-09T13:35:01Z</time>
      </trkpt>
      <trkpt lat="42.82849" lon="0.61575">
        <ele>1125.5</ele>
        <time>2014-05-09T13:36:15Z</time>
      </trkpt>
      <trkpt lat="42.82797" lon="0.61506">
        <ele>1072.52</ele>
        <time>2014-05-09T13:40:17Z</time>
      </trkpt>
      <trkpt lat="42.82752" lon="0.6159">
        <ele>1047.22</ele>
        <time>2014-05-09T13:40:50Z</time>
      </trkpt>
      <trkpt lat="42.82691" lon="0.61646">
        <ele>1039.58</ele>
        <time>2014-05-09T13:41:47Z</time>
      </trkpt>
      <trkpt lat="42.82637" lon="0.61579">
        <ele>992.27</ele>
        <time>2014-05-09T13:47:24Z</time>
      </trkpt>
      <trkpt lat="42.82616" lon="0.61485">
        <ele>978.26</ele>
        <time>2014-05-09T13:50:19Z</time>
      </trkpt>
      <trkpt lat="42.82597" lon="0.61388">
        <ele>982.01</ele>
        <time>2014-05-09T13:50:51Z</time>
      </trkpt>
      <trkpt lat="42.8255" lon="0.61313">
        <ele>980.78</ele>
        <time>2014-05-09T13:51:12Z</time>
      </trkpt>
      <trkpt lat="42.82487" lon="0.61257">
        <ele>969.53</ele>
        <time>2014-05-09T13:51:51Z</time>
      </trkpt>
      <trkpt lat="42.82432" lon="0.61193">
        <ele>956.77</ele>
        <time>2014-05-09T13:52:05Z</time>
      </trkpt>
      <trkpt lat="42.82369" lon="0.61146">
        <ele>944.19</ele>
        <time>2014-05-09T13:52:18Z</time>
      </trkpt>
      <trkpt lat="42.82303" lon="0.61096">
        <ele>941.15</ele>
        <time>2014-05-09T13:52:28Z</time>
      </trkpt>
      <trkpt lat="42.82231" lon="0.61064">
        <ele>938.3</ele>
        <time>2014-05-09T13:52:40Z</time>
      </trkpt>
      <trkpt lat="42.82158" lon="0.61081">
        <ele>923.83</ele>
        <time>2014-05-09T13:52:53Z</time>
      </trkpt>
      <trkpt lat="42.82104" lon="0.61148">
        <ele>914.31</ele>
        <time>2014-05-09T13:53:40Z</time>
      </trkpt>
      <trkpt lat="42.8203" lon="0.61152">
        <ele>910.27</ele>
        <time>2014-05-09T13:54:16Z</time>
      </trkpt>
      <trkpt lat="42.81968" lon="0.61103">
        <ele>919.52</ele>
        <time>2014-05-09T13:54:35Z</time>
      </trkpt>
      <trkpt lat="42.81891" lon="0.61105">
        <ele>921.58</ele>
        <time>2014-05-09T13:54:56Z</time>
      </trkpt>
      <trkpt lat="42.81833" lon="0.61169">
        <ele>909.04</ele>
        <time>2014-05-09T13:57:39Z</time>
      </trkpt>
      <trkpt lat="42.8188" lon="0.61092">
        <ele>898.27</ele>
        <time>2014-05-09T13:58:11Z</time>
      </trkpt>
      <trkpt lat="42.81953" lon="0.61086">
        <ele>902.48</ele>
        <time>2014-05-09T13:58:29Z</time>
      </trkpt>
      <trkpt lat="42.82024" lon="0.61099">
        <ele>899.28</ele>
        <time>2014-05-09T13:58:53Z</time>
      </trkpt>
      <trkpt lat="42.82089" lon="0.61054">
        <ele>900.69</ele>
        <time>2014-05-09T13:59:04Z</time>
      </trkpt>
      <trkpt lat="42.82148" lon="0.60996">
        <ele>911.44</ele>
        <time>2014-05-09T13:59:14Z</time>
      </trkpt>
      <trkpt lat="42.8222" lon="0.60974">
        <ele>907.55</ele>
        <time>2014-05-09T13:59:28Z</time>
      </trkpt>
      <trkpt lat="42.82296" lon="0.6097">
        <ele>899.82</ele>
        <time>2014-05-09T13:59:44Z</time>
      </trkpt>
      <trkpt lat="42.82364" lon="0.60935">
        <ele>842.47</ele>
        <time>2014-05-09T14:00:17Z</time>
      </trkpt>
      <trkpt lat="42.82408" lon="0.60856">
        <ele>800.39</ele>
        <time>2014-05-09T14:01:24Z</time>
      </trkpt>
      <trkpt lat="42.82481" lon="0.60848">
        <ele>778.59</ele>
        <time>2014-05-09T14:01:44Z</time>
      </trkpt>
      <trkpt lat="42.82554" lon="0.60822">
        <ele>774.75</ele>
        <time>2014-05-09T14:02:00Z</time>
      </trkpt>
      <trkpt lat="42.82593" lon="0.60738">
        <ele>765.26</ele>
        <time>2014-05-09T14:02:15Z</time>
      </trkpt>
      <trkpt lat="42.82654" lon="0.60684">
        <ele>685.28</ele>
        <time>2014-05-09T14:06:41Z</time>
      </trkpt>
      <trkpt lat="42.82721" lon="0.60633">
        <ele>652.99</ele>
        <time>2014-05-09T14:07:02Z</time>
      </trkpt>
      <trkpt lat="42.82796" lon="0.60624">
        <ele>647.44</ele>
        <time>2014-05-09T14:07:13Z</time>
      </trkpt>
      <trkpt lat="42.82868" lon="0.60618">
        <ele>644.77</ele>
        <time>2014-05-09T14:07:39Z</time>
      </trkpt>
      <trkpt lat="42.8289" lon="0.60524">
        <ele>625.33</ele>
        <time>2014-05-09T14:07:57Z</time>
      </trkpt>
      <trkpt lat="42.82963" lon="0.60511">
        <ele>627.24</ele>
        <time>2014-05-09T14:08:18Z</time>
      </trkpt>
      <trkpt lat="42.83038" lon="0.60493">
        <ele>618.01</ele>
        <time>2014-05-09T14:08:36Z</time>
      </trkpt>
      <trkpt lat="42.83111" lon="0.60474">
        <ele>618.2</ele>
        <time>2014-05-09T14:08:59Z</time>
      </trkpt>
      <trkpt lat="42.83184" lon="0.60461">
        <ele>617.3</ele>
        <time>2014-05-09T14:09:21Z</time>
      </trkpt>
      <trkpt lat="42.83256" lon="0.60485">
        <ele>615.27</ele>
        <time>2014-05-09T14:09:42Z</time>
      </trkpt>
      <trkpt lat="42.83327" lon="0.60466">
        <ele>611.78</ele>
        <time>2014-05-09T14:09:54Z</time>
      </trkpt>
      <trkpt lat="42.83399" lon="0.60444">
        <ele>612.39</ele>
        <time>2014-05-09T14:10:06Z</time>
      </trkpt>
      <trkpt lat="42.83473" lon="0.60436">
        <ele>613.68</ele>
        <time>2014-05-09T14:10:15Z</time>
      </trkpt>
      <trkpt lat="42.83548" lon="0.6044">
        <ele>610.63</ele>
        <time>2014-05-09T14:10:30Z</time>
      </trkpt>
      <trkpt lat="42.83619" lon="0.6041">
        <ele>614.21</ele>
        <time>2014-05-09T14:10:44Z</time>
      </trkpt>
    </trkseg>
  </trk>
</gpx>